KLM50K EKCH-EHAM
Flight info
| Callsign | KLM50K |
|---|---|
| Flight time | N/A |
| Altitude | 36000 |
| Route | LANGO DCT RAXLU DCT BLUFA |
| Aircraft | A21N/M-SDE3FGHIRWY/LB1 |
Departure
| Time | 2026-04-24 16:07 |
|---|---|
| Airport | Copenhagen Kastrup Airport (EKCH) |
Arrival
| Time | N/A |
|---|---|
| Airport | Amsterdam Airport Schiphol (EHAM) |
| Time | Latitude | Longitude | Altitude | Speed | Heading |
|---|---|---|---|---|---|
| 2026-04-24 15:43 | 55.62889 | 12.63870 | 21 ft | 0 kts | 10° |
| 2026-04-24 15:56 | 55.62888 | 12.63869 | 21 ft | 1 kts | 10° |
| 2026-04-24 15:56 | 55.62873 | 12.63864 | 21 ft | 2 kts | 10° |
| 2026-04-24 15:57 | 55.62858 | 12.63859 | 22 ft | 2 kts | 21° |
| 2026-04-24 15:57 | 55.62847 | 12.63841 | 22 ft | 2 kts | 65° |
| 2026-04-24 15:57 | 55.62844 | 12.63818 | 22 ft | 0 kts | 99° |
| 2026-04-24 15:57 | 55.62846 | 12.63808 | 22 ft | 1 kts | 105° |
| 2026-04-24 15:58 | 55.62846 | 12.63804 | 22 ft | 0 kts | 103° |
| 2026-04-24 16:01 | 55.62844 | 12.63819 | 22 ft | 3 kts | 103° |
| 2026-04-24 16:01 | 55.62833 | 12.63890 | 22 ft | 8 kts | 110° |
| 2026-04-24 16:01 | 55.62779 | 12.63954 | 21 ft | 11 kts | 194° |
| 2026-04-24 16:01 | 55.62701 | 12.63871 | 22 ft | 14 kts | 207° |
| 2026-04-24 16:02 | 55.62614 | 12.63953 | 22 ft | 18 kts | 123° |
| 2026-04-24 16:02 | 55.62536 | 12.64166 | 21 ft | 23 kts | 121° |
| 2026-04-24 16:02 | 55.62437 | 12.64414 | 21 ft | 20 kts | 130° |
| 2026-04-24 16:02 | 55.62336 | 12.64423 | 21 ft | 15 kts | 191° |
| 2026-04-24 16:03 | 55.62217 | 12.64358 | 22 ft | 20 kts | 201° |
| 2026-04-24 16:03 | 55.62076 | 12.64245 | 22 ft | 24 kts | 205° |
| 2026-04-24 16:03 | 55.61946 | 12.64199 | 22 ft | 16 kts | 123° |
| 2026-04-24 16:03 | 55.61951 | 12.64405 | 22 ft | 17 kts | 89° |
| 2026-04-24 16:04 | 55.61857 | 12.64519 | 22 ft | 18 kts | 171° |
| 2026-04-24 16:04 | 55.61721 | 12.64561 | 22 ft | 20 kts | 171° |
| 2026-04-24 16:04 | 55.61588 | 12.64465 | 22 ft | 21 kts | 212° |
| 2026-04-24 16:04 | 55.61457 | 12.64315 | 22 ft | 23 kts | 213° |
| 2026-04-24 16:05 | 55.61174 | 12.63987 | 23 ft | 25 kts | 213° |
| 2026-04-24 16:05 | 55.61025 | 12.63815 | 23 ft | 26 kts | 213° |
| 2026-04-24 16:06 | 55.60772 | 12.63616 | 22 ft | 15 kts | 137° |
| 2026-04-24 16:06 | 55.60703 | 12.63759 | 22 ft | 15 kts | 122° |
| 2026-04-24 16:06 | 55.60921 | 12.64250 | 24 ft | 78 kts | 40° |
| 2026-04-24 16:07 | 55.61531 | 12.65195 | 23 ft | 150 kts | 41° |
| 2026-04-24 16:07 | 55.62401 | 12.66559 | 432 ft | 172 kts | 40° |
| 2026-04-24 16:07 | 55.64193 | 12.69399 | 1844 ft | 183 kts | 38° |
| 2026-04-24 16:08 | 55.65155 | 12.70925 | 2470 ft | 193 kts | 36° |
| 2026-04-24 16:08 | 55.67373 | 12.74170 | 3557 ft | 226 kts | 35° |
| 2026-04-24 16:09 | 55.69852 | 12.78285 | 4811 ft | 265 kts | 56° |
| 2026-04-24 16:09 | 55.70387 | 12.81453 | 5590 ft | 282 kts | 85° |
| 2026-04-24 16:09 | 55.70017 | 12.84879 | 6488 ft | 292 kts | 113° |
| 2026-04-24 16:09 | 55.68769 | 12.87659 | 7301 ft | 298 kts | 144° |
| 2026-04-24 16:10 | 55.62853 | 12.91299 | 9670 ft | 310 kts | 181° |
| 2026-04-24 16:11 | 55.59259 | 12.88166 | 10922 ft | 299 kts | 243° |
| 2026-04-24 16:11 | 55.58393 | 12.84782 | 11365 ft | 308 kts | 256° |
| 2026-04-24 16:11 | 55.57660 | 12.81175 | 11760 ft | 325 kts | 255° |
| 2026-04-24 16:12 | 55.55874 | 12.73572 | 13073 ft | 342 kts | 251° |
| 2026-04-24 16:12 | 55.54872 | 12.69758 | 13885 ft | 345 kts | 250° |
| 2026-04-24 16:12 | 55.52778 | 12.62148 | 15385 ft | 351 kts | 250° |
| 2026-04-24 16:13 | 55.51702 | 12.58330 | 16130 ft | 354 kts | 250° |
| 2026-04-24 16:13 | 55.49472 | 12.50505 | 17525 ft | 361 kts | 249° |
| 2026-04-24 16:14 | 55.47196 | 12.42594 | 18880 ft | 367 kts | 250° |
| 2026-04-24 16:14 | 55.46057 | 12.38649 | 19485 ft | 370 kts | 250° |
| 2026-04-24 16:14 | 55.43691 | 12.30484 | 20666 ft | 378 kts | 249° |
| 2026-04-24 16:15 | 55.42892 | 12.27733 | 21050 ft | 380 kts | 249° |
| 2026-04-24 16:15 | 55.40075 | 12.18057 | 22333 ft | 388 kts | 249° |
| 2026-04-24 16:16 | 55.37597 | 12.09577 | 23377 ft | 394 kts | 249° |
| 2026-04-24 16:16 | 55.36343 | 12.05302 | 23873 ft | 398 kts | 249° |
| 2026-04-24 16:17 | 55.32531 | 11.92345 | 25382 ft | 403 kts | 249° |
| 2026-04-24 16:17 | 55.29932 | 11.83547 | 26292 ft | 408 kts | 248° |
| 2026-04-24 16:18 | 55.27304 | 11.74694 | 27123 ft | 413 kts | 248° |
| 2026-04-24 16:18 | 55.24519 | 11.65860 | 27903 ft | 421 kts | 244° |
| 2026-04-24 16:18 | 55.22937 | 11.61540 | 28294 ft | 423 kts | 243° |
| 2026-04-24 16:19 | 55.19751 | 11.52915 | 29021 ft | 427 kts | 243° |
| 2026-04-24 16:19 | 55.18137 | 11.48554 | 29432 ft | 427 kts | 243° |
| 2026-04-24 16:20 | 55.14954 | 11.39988 | 30462 ft | 421 kts | 243° |
| 2026-04-24 16:20 | 55.11766 | 11.31434 | 31352 ft | 418 kts | 242° |
| 2026-04-24 16:20 | 55.10199 | 11.27243 | 31753 ft | 417 kts | 242° |
| 2026-04-24 16:21 | 55.07038 | 11.18796 | 32501 ft | 416 kts | 242° |
| 2026-04-24 16:21 | 55.05469 | 11.14616 | 32854 ft | 415 kts | 242° |
| 2026-04-24 16:21 | 55.03897 | 11.10437 | 33218 ft | 413 kts | 242° |
| 2026-04-24 16:22 | 55.02320 | 11.06250 | 33550 ft | 412 kts | 242° |
| 2026-04-24 16:22 | 54.99176 | 10.97919 | 34177 ft | 411 kts | 242° |
| 2026-04-24 16:22 | 54.97628 | 10.93828 | 34477 ft | 410 kts | 242° |
| 2026-04-24 16:23 | 54.96059 | 10.89691 | 34733 ft | 410 kts | 242° |
| 2026-04-24 16:23 | 54.94481 | 10.85539 | 34955 ft | 411 kts | 242° |
| 2026-04-24 16:23 | 54.92887 | 10.81426 | 35151 ft | 413 kts | 241° |
| 2026-04-24 16:24 | 54.89642 | 10.73159 | 35501 ft | 416 kts | 240° |
| 2026-04-24 16:24 | 54.88021 | 10.69037 | 35677 ft | 416 kts | 240° |
| 2026-04-24 16:24 | 54.86382 | 10.64878 | 35836 ft | 417 kts | 240° |
| 2026-04-24 16:24 | 54.84770 | 10.60787 | 35980 ft | 418 kts | 240° |
| 2026-04-24 16:25 | 54.83112 | 10.56585 | 36024 ft | 419 kts | 240° |
| 2026-04-24 16:25 | 54.79852 | 10.48345 | 36035 ft | 419 kts | 240° |
| 2026-04-24 16:26 | 54.74913 | 10.35896 | 36042 ft | 419 kts | 240° |
| 2026-04-24 16:27 | 54.69854 | 10.23638 | 36047 ft | 421 kts | 237° |
| 2026-04-24 16:27 | 54.66304 | 10.15611 | 36057 ft | 421 kts | 237° |
| 2026-04-24 16:28 | 54.62774 | 10.07639 | 36061 ft | 421 kts | 237° |
| 2026-04-24 16:28 | 54.57442 | 9.95650 | 36066 ft | 420 kts | 237° |
| 2026-04-24 16:29 | 54.53875 | 9.87661 | 36070 ft | 421 kts | 237° |
| 2026-04-24 16:30 | 54.46769 | 9.71821 | 36088 ft | 419 kts | 236° |
| 2026-04-24 16:30 | 54.43212 | 9.63935 | 36091 ft | 419 kts | 236° |
| 2026-04-24 16:31 | 54.39664 | 9.56087 | 36098 ft | 419 kts | 236° |
| 2026-04-24 16:31 | 54.36098 | 9.48226 | 36102 ft | 419 kts | 236° |
| 2026-04-24 16:32 | 54.32534 | 9.40397 | 36108 ft | 419 kts | 236° |
| 2026-04-24 16:32 | 54.28954 | 9.32556 | 36114 ft | 423 kts | 235° |
| 2026-04-24 16:33 | 54.25299 | 9.24568 | 36116 ft | 431 kts | 235° |
| 2026-04-24 16:33 | 54.21594 | 9.16506 | 36123 ft | 433 kts | 235° |
| 2026-04-24 16:34 | 54.17869 | 9.08432 | 36127 ft | 433 kts | 235° |
| 2026-04-24 16:34 | 54.14162 | 9.00418 | 36134 ft | 433 kts | 235° |
| 2026-04-24 16:35 | 54.10450 | 8.92418 | 36140 ft | 432 kts | 235° |
| 2026-04-24 16:35 | 54.06727 | 8.84423 | 36144 ft | 432 kts | 235° |
| 2026-04-24 16:36 | 54.03002 | 8.76447 | 36150 ft | 432 kts | 235° |
| 2026-04-24 16:36 | 53.99282 | 8.68503 | 36150 ft | 431 kts | 234° |
| 2026-04-24 16:37 | 53.95554 | 8.60575 | 36149 ft | 431 kts | 234° |
| 2026-04-24 16:37 | 53.91804 | 8.52622 | 36152 ft | 430 kts | 234° |
| 2026-04-24 16:38 | 53.88084 | 8.44754 | 36162 ft | 430 kts | 234° |
| 2026-04-24 16:38 | 53.84353 | 8.36894 | 36161 ft | 429 kts | 234° |
| 2026-04-24 16:39 | 53.80624 | 8.29062 | 36162 ft | 429 kts | 234° |
| 2026-04-24 16:39 | 53.76887 | 8.21234 | 36159 ft | 428 kts | 234° |
| 2026-04-24 16:40 | 53.73178 | 8.13490 | 36164 ft | 429 kts | 234° |
| 2026-04-24 16:40 | 53.69436 | 8.05700 | 36162 ft | 428 kts | 234° |
| 2026-04-24 16:41 | 53.65675 | 7.97900 | 36161 ft | 429 kts | 234° |
| 2026-04-24 16:41 | 53.61942 | 7.90177 | 36165 ft | 429 kts | 233° |
| 2026-04-24 16:42 | 53.58174 | 7.82408 | 36174 ft | 428 kts | 233° |
| 2026-04-24 16:42 | 53.54440 | 7.74732 | 36179 ft | 427 kts | 233° |
| 2026-04-24 16:43 | 53.50683 | 7.67036 | 36185 ft | 428 kts | 233° |
| 2026-04-24 16:43 | 53.46920 | 7.59347 | 36187 ft | 427 kts | 233° |
| 2026-04-24 16:44 | 53.43168 | 7.51706 | 36187 ft | 427 kts | 233° |
| 2026-04-24 16:44 | 53.39392 | 7.44039 | 36194 ft | 426 kts | 233° |
| 2026-04-24 16:45 | 53.35629 | 7.36421 | 36193 ft | 426 kts | 233° |
| 2026-04-24 16:45 | 53.31872 | 7.28840 | 36061 ft | 428 kts | 233° |
| 2026-04-24 16:46 | 53.29969 | 7.25006 | 35703 ft | 427 kts | 233° |
| 2026-04-24 16:46 | 53.28093 | 7.21236 | 35257 ft | 422 kts | 233° |
| 2026-04-24 16:46 | 53.26230 | 7.17497 | 34561 ft | 423 kts | 233° |
| 2026-04-24 16:46 | 53.24337 | 7.13702 | 33665 ft | 425 kts | 233° |
| 2026-04-24 16:47 | 53.22469 | 7.09959 | 32728 ft | 428 kts | 232° |
| 2026-04-24 16:47 | 53.20573 | 7.06167 | 31752 ft | 432 kts | 232° |
| 2026-04-24 16:47 | 53.18637 | 7.02302 | 30830 ft | 435 kts | 232° |
| 2026-04-24 16:47 | 53.16704 | 6.98449 | 29968 ft | 439 kts | 232° |
| 2026-04-24 16:48 | 53.14741 | 6.94544 | 29138 ft | 443 kts | 232° |
| 2026-04-24 16:48 | 53.12766 | 6.90622 | 28505 ft | 446 kts | 232° |
| 2026-04-24 16:48 | 53.10797 | 6.86717 | 27970 ft | 448 kts | 232° |
| 2026-04-24 16:48 | 53.08781 | 6.82727 | 27423 ft | 451 kts | 232° |
| 2026-04-24 16:49 | 53.06779 | 6.78770 | 26857 ft | 454 kts | 232° |
| 2026-04-24 16:49 | 53.04750 | 6.74765 | 26278 ft | 457 kts | 232° |
| 2026-04-24 16:49 | 53.02706 | 6.70738 | 25685 ft | 459 kts | 232° |
| 2026-04-24 16:49 | 53.00634 | 6.66662 | 25093 ft | 462 kts | 231° |
| 2026-04-24 16:50 | 52.99254 | 6.63950 | 24692 ft | 464 kts | 231° |
| 2026-04-24 16:50 | 52.96495 | 6.58536 | 23875 ft | 467 kts | 231° |
| 2026-04-24 16:50 | 52.94398 | 6.54430 | 23246 ft | 464 kts | 231° |
| 2026-04-24 16:50 | 52.92341 | 6.50407 | 22642 ft | 461 kts | 231° |
| 2026-04-24 16:51 | 52.90288 | 6.46400 | 22059 ft | 458 kts | 231° |
| 2026-04-24 16:51 | 52.88233 | 6.42396 | 21446 ft | 456 kts | 231° |
| 2026-04-24 16:51 | 52.86173 | 6.38392 | 20846 ft | 453 kts | 231° |
| 2026-04-24 16:51 | 52.84155 | 6.34424 | 20237 ft | 450 kts | 232° |
| 2026-04-24 16:52 | 52.82310 | 6.30337 | 19653 ft | 447 kts | 236° |
| 2026-04-24 16:52 | 52.80546 | 6.26172 | 19072 ft | 443 kts | 236° |
| 2026-04-24 16:52 | 52.78785 | 6.21984 | 18481 ft | 440 kts | 236° |
| 2026-04-24 16:52 | 52.77055 | 6.17869 | 17962 ft | 438 kts | 236° |
| 2026-04-24 16:53 | 52.75332 | 6.13775 | 17469 ft | 435 kts | 236° |
| 2026-04-24 16:53 | 52.73597 | 6.09665 | 17003 ft | 431 kts | 236° |
| 2026-04-24 16:53 | 52.71885 | 6.05617 | 16302 ft | 427 kts | 236° |
| 2026-04-24 16:53 | 52.70200 | 6.01638 | 15600 ft | 424 kts | 236° |
| 2026-04-24 16:54 | 52.68534 | 5.97712 | 14975 ft | 423 kts | 236° |
| 2026-04-24 16:54 | 52.66863 | 5.93780 | 14375 ft | 421 kts | 237° |
| 2026-04-24 16:54 | 52.65189 | 5.89848 | 13789 ft | 419 kts | 237° |
| 2026-04-24 16:54 | 52.63512 | 5.85911 | 13200 ft | 416 kts | 237° |
| 2026-04-24 16:55 | 52.61859 | 5.82037 | 12631 ft | 413 kts | 237° |
| 2026-04-24 16:55 | 52.60241 | 5.78249 | 12074 ft | 410 kts | 237° |
| 2026-04-24 16:55 | 52.58604 | 5.74423 | 11507 ft | 407 kts | 236° |
| 2026-04-24 16:55 | 52.56990 | 5.70655 | 10966 ft | 404 kts | 236° |
| 2026-04-24 16:56 | 52.55378 | 5.66903 | 10701 ft | 402 kts | 236° |
| 2026-04-24 16:56 | 52.53765 | 5.63154 | 10518 ft | 402 kts | 236° |